Archival Weather

Tokyo Intl

Tokyo Intl, Japan (RJTT)

Report from: Friday, June 24, 2022 8:40 AM JST
Current time: Tuesday, August 16, 2022 4:29 PM JST

Current weather
Weather history
Weather forecast

Temperature29.0°C (84.2°F)
Heat index33.7°C (92.7°F)
Dew point24.0°C (75.2°F)
Winds 21 kts (10.8 m/s, 24.2 mph) South-Southwest (200°)
Wind gusts 31 kts (15.9 m/s, 35.7 mph)
Visibility6.2 mi. (10 km)
Clouds Ceiling: Broken clouds 0 ft. (0 m)
Few clouds 1,500 ft. (457 m)
Scattered clouds 18,000 ft. (5,486 m)
Altimeter29.71 in.Hg (1006 mB)
Relative humidity75 %
Density altitude2,251 ft. (686 m)
Remarks Special weather observation
Flight conditions Low Instrument Meteorological Conditions
Raw dataSPJP31 KWBC 232346 SPECI RJTT 232340Z 20021G31KT 9999 FEW015 SCT180 BKN/// 29/24 Q1006 RMK 2CU015 4AC180 A2972
An error has occurred. This application may no longer respond until reloaded. Reload 🗙